Gustavus, AK

2:36 PM AKDT on August 01, 2014 (GMT -0800)
Gustavus (PAGS) Elev 30 ft | 58.43 °N, 135.71 °W | Change Station

Current weather conditions updated 26 minutes ago

Clear
Clear
66 °F
Feels Like 66 °F
N
9
Wind Variable Wind from South

Today is forecast to be Cooler than yesterday.

Today
High -- | Low -- °F
--% Chance of Precip.
Yesterday
High -- | Low -- °F
Precip. -- in
4:56 AM 9:30 PM
Waxing Crescent, 30% visible
Pressure 30.20 in
Visibility 10.0 miles
Clouds Clear
Dew Point 52 °F
Humidity 60%
Rainfall 0.00 in
Snow Depth Not available.
UV 7 out of 12
Pollen Not available.
Air Quality Not available.
Flu Activity Not available.
METAR PAGS 012210Z AUTO 19008KT 10SM CLR 19/11 A3020 RMK VIA PHONE

More Conditions Fewer Conditions

Pressure 30.20 in
Visibility 10.0 miles
Clouds Clear
Dew Point 52 °F
Humidity 60%
Rainfall 0.00 in
Snow Depth Not available.
UV 7 out of 12
Pollen Not available.
Air Quality Not available.
Flu Activity Not available.
METAR PAGS 012210Z AUTO 19008KT 10SM CLR 19/11 A3020 RMK VIA PHONE

More Conditions Fewer Conditions

10-Day Weather Forecast

Almanac

Astronomy

Aug. 01, 2014 Rise Set
Actual Time 4:56 AM AKDT 9:30 PM AKDT
Civil Twilight 4:00 AM AKDT 10:25 PM AKDT
Nautical Twilight 2:20 AM AKDT 12:01 AM AKDT
Astronomical Twilight Sun does not rise Sun does not rise
Moon 11:59 AM AKDT 10:43 PM AKDT
Length of Visible Light 18h 25m
Length of Day
16h 33m
Tomorrow will be 4m 33s shorter.
Waxing Crescent, 30% of the Moon is Illuminated
Today
Waxing Crescent
Aug 3
First Quarter
Aug 10
Full
Aug 17
Last Quarter
Aug 25
New

Today's Extremes

State Highs State Lows

Community

WunderPhotos

Upload Photos

1,739,735 photos uploaded!

Nearby

Snow Depth

Station Depth Elevation
Long Lake 0 in 820 ft
Upper Tsaina River 0 in 1750 ft
Grandview 1 in 1100 ft
Grouse Creek Divide 0 in 700 ft
Turnagain Pass 0 in 1880 ft

Earthquake Activity

City Distance Mag. Time & Date
No recent earthquake activity has been reported nearby.
Minimum magnitude displayed is 2.5.

Coastal Water Temperatures

Place Temperature
No Stations Reporting

Nearby Weather Stations

There are no personal weather stations in this area.